sensor_id;sensor_type;location;lat;lon;timestamp;pressure;altitude;pressure_sealevel;temperature;humidity
35676;BME280;21790;42.668;23.298;2022-09-11T00:01:36;94582.88;;;25.61;45.73
35676;BME280;21790;42.668;23.298;2022-09-11T00:04:04;94578.19;;;25.64;45.85
35676;BME280;21790;42.668;23.298;2022-09-11T00:06:30;94566.66;;;25.77;45.81
35676;BME280;21790;42.668;23.298;2022-09-11T00:09:00;94577.41;;;25.86;45.61
35676;BME280;21790;42.668;23.298;2022-09-11T00:11:36;94571.75;;;25.86;45.24
35676;BME280;21790;42.668;23.298;2022-09-11T00:14:04;94577.03;;;25.67;45.54
35676;BME280;21790;42.668;23.298;2022-09-11T00:16:33;94572.88;;;25.68;45.42
35676;BME280;21790;42.668;23.298;2022-09-11T00:19:05;94579.50;;;25.63;45.89
35676;BME280;21790;42.668;23.298;2022-09-11T00:21:31;94575.69;;;25.60;45.44
35676;BME280;21790;42.668;23.298;2022-09-11T00:23:56;94574.91;;;25.45;45.94
35676;BME280;21790;42.668;23.298;2022-09-11T00:26:22;94578.31;;;25.51;45.85
35676;BME280;21790;42.668;23.298;2022-09-11T00:28:49;94579.78;;;25.44;45.91
35676;BME280;21790;42.668;23.298;2022-09-11T00:31:26;94586.94;;;25.37;46.26
35676;BME280;21790;42.668;23.298;2022-09-11T00:33:55;94580.53;;;25.29;46.82
35676;BME280;21790;42.668;23.298;2022-09-11T00:36:26;94574.50;;;25.48;46.90
35676;BME280;21790;42.668;23.298;2022-09-11T00:38:53;94577.13;;;25.23;46.84
35676;BME280;21790;42.668;23.298;2022-09-11T00:41:26;94579.00;;;25.28;46.77
35676;BME280;21790;42.668;23.298;2022-09-11T00:43:53;94572.78;;;25.37;46.59
35676;BME280;21790;42.668;23.298;2022-09-11T00:46:23;94574.47;;;25.18;47.49
35676;BME280;21790;42.668;23.298;2022-09-11T00:48:50;94578.59;;;25.17;47.51
35676;BME280;21790;42.668;23.298;2022-09-11T00:51:23;94580.50;;;25.22;46.95
35676;BME280;21790;42.668;23.298;2022-09-11T00:53:52;94574.97;;;25.01;47.35
35676;BME280;21790;42.668;23.298;2022-09-11T00:56:20;94579.91;;;25.08;47.32
35676;BME280;21790;42.668;23.298;2022-09-11T00:58:48;94575.75;;;25.09;46.85
35676;BME280;21790;42.668;23.298;2022-09-11T01:01:15;94574.94;;;24.93;47.74
35676;BME280;21790;42.668;23.298;2022-09-11T01:03:41;94575.94;;;25.11;46.76
35676;BME280;21790;42.668;23.298;2022-09-11T01:06:07;94576.88;;;25.06;47.20
35676;BME280;21790;42.668;23.298;2022-09-11T01:08:34;94575.38;;;25.13;46.77
35676;BME280;21790;42.668;23.298;2022-09-11T01:14:04;94572.94;;;25.09;46.92
35676;BME280;21790;42.668;23.298;2022-09-11T01:16:38;94569.56;;;25.18;46.78
35676;BME280;21790;42.668;23.298;2022-09-11T01:27:44;94584.63;;;25.13;47.00
35676;BME280;21790;42.668;23.298;2022-09-11T01:30:19;94575.00;;;25.09;47.28
35676;BME280;21790;42.668;23.298;2022-09-11T01:33:04;94569.34;;;25.09;47.19
35676;BME280;21790;42.668;23.298;2022-09-11T01:38:23;94567.25;;;25.02;46.84
35676;BME280;21790;42.668;23.298;2022-09-11T01:41:03;94560.50;;;25.12;46.54
35676;BME280;21790;42.668;23.298;2022-09-11T01:43:33;94556.38;;;25.28;45.92
35676;BME280;21790;42.668;23.298;2022-09-11T01:46:02;94559.19;;;25.13;45.94
35676;BME280;21790;42.668;23.298;2022-09-11T01:48:41;94552.97;;;25.15;46.23
35676;BME280;21790;42.668;23.298;2022-09-11T01:51:14;94554.22;;;24.98;46.78
35676;BME280;21790;42.668;23.298;2022-09-11T01:53:45;94548.63;;;25.21;46.15
35676;BME280;21790;42.668;23.298;2022-09-11T01:56:21;94530.69;;;25.11;46.22
35676;BME280;21790;42.668;23.298;2022-09-11T01:58:50;94533.28;;;24.94;46.77
35676;BME280;21790;42.668;23.298;2022-09-11T02:01:20;94531.38;;;24.89;46.88
35676;BME280;21790;42.668;23.298;2022-09-11T02:03:53;94536.19;;;25.09;46.71
35676;BME280;21790;42.668;23.298;2022-09-11T02:06:29;94527.09;;;25.03;46.68
35676;BME280;21790;42.668;23.298;2022-09-11T02:08:58;94528.16;;;24.85;47.26
35676;BME280;21790;42.668;23.298;2022-09-11T02:11:25;94518.59;;;24.95;46.57
35676;BME280;21790;42.668;23.298;2022-09-11T02:14:08;94522.59;;;25.08;46.69
35676;BME280;21790;42.668;23.298;2022-09-11T02:16:51;94522.78;;;25.17;46.02
35676;BME280;21790;42.668;23.298;2022-09-11T02:19:19;94523.16;;;25.06;46.12
35676;BME280;21790;42.668;23.298;2022-09-11T02:21:49;94527.03;;;24.88;46.82
35676;BME280;21790;42.668;23.298;2022-09-11T02:24:19;94535.53;;;24.88;46.99
35676;BME280;21790;42.668;23.298;2022-09-11T02:27:08;94527.50;;;25.07;46.25
35676;BME280;21790;42.668;23.298;2022-09-11T02:29:35;94528.22;;;25.00;46.74
35676;BME280;21790;42.668;23.298;2022-09-11T02:32:01;94521.91;;;24.79;47.01
35676;BME280;21790;42.668;23.298;2022-09-11T02:34:31;94523.50;;;24.95;47.02
35676;BME280;21790;42.668;23.298;2022-09-11T02:59:51;94522.56;;;24.56;48.72
35676;BME280;21790;42.668;23.298;2022-09-11T03:02:18;94528.41;;;24.23;49.52
35676;BME280;21790;42.668;23.298;2022-09-11T03:04:43;94528.63;;;24.25;49.67
35676;BME280;21790;42.668;23.298;2022-09-11T03:07:09;94526.19;;;24.29;49.87
35676;BME280;21790;42.668;23.298;2022-09-11T03:09:35;94528.78;;;24.19;50.13
35676;BME280;21790;42.668;23.298;2022-09-11T03:12:01;94533.56;;;24.32;49.70
35676;BME280;21790;42.668;23.298;2022-09-11T03:14:27;94539.38;;;24.26;49.64
35676;BME280;21790;42.668;23.298;2022-09-11T03:16:53;94541.38;;;24.18;50.08
35676;BME280;21790;42.668;23.298;2022-09-11T03:19:20;94548.53;;;24.19;49.90
35676;BME280;21790;42.668;23.298;2022-09-11T03:21:45;94550.25;;;24.22;50.25
35676;BME280;21790;42.668;23.298;2022-09-11T03:24:11;94558.41;;;24.05;50.57
35676;BME280;21790;42.668;23.298;2022-09-11T03:26:37;94556.28;;;23.98;50.69
35676;BME280;21790;42.668;23.298;2022-09-11T03:29:03;94551.31;;;23.91;50.88
35676;BME280;21790;42.668;23.298;2022-09-11T03:31:29;94554.66;;;24.10;50.48
35676;BME280;21790;42.668;23.298;2022-09-11T03:33:54;94559.84;;;23.98;50.92
35676;BME280;21790;42.668;23.298;2022-09-11T03:36:20;94565.25;;;23.89;51.19
35676;BME280;21790;42.668;23.298;2022-09-11T03:38:47;94561.06;;;24.10;50.63
35676;BME280;21790;42.668;23.298;2022-09-11T03:41:13;94559.75;;;24.11;51.00
35676;BME280;21790;42.668;23.298;2022-09-11T03:43:39;94567.19;;;24.22;50.37
35676;BME280;21790;42.668;23.298;2022-09-11T03:46:04;94563.81;;;24.24;50.25
35676;BME280;21790;42.668;23.298;2022-09-11T03:48:31;94565.13;;;24.02;50.43
35676;BME280;21790;42.668;23.298;2022-09-11T03:50:57;94571.72;;;23.76;51.29
35676;BME280;21790;42.668;23.298;2022-09-11T03:53:23;94583.75;;;23.76;51.51
35676;BME280;21790;42.668;23.298;2022-09-11T03:55:49;94580.66;;;23.88;51.20
35676;BME280;21790;42.668;23.298;2022-09-11T03:58:15;94577.13;;;23.95;51.09
35676;BME280;21790;42.668;23.298;2022-09-11T04:00:43;94585.06;;;23.75;51.58
35676;BME280;21790;42.668;23.298;2022-09-11T04:03:10;94574.41;;;23.82;51.35
35676;BME280;21790;42.668;23.298;2022-09-11T04:05:36;94580.38;;;23.99;51.00
35676;BME280;21790;42.668;23.298;2022-09-11T04:08:02;94576.09;;;24.05;50.63
35676;BME280;21790;42.668;23.298;2022-09-11T04:10:28;94573.78;;;23.75;51.20
35676;BME280;21790;42.668;23.298;2022-09-11T04:12:53;94573.09;;;23.83;51.06
35676;BME280;21790;42.668;23.298;2022-09-11T04:15:19;94583.47;;;23.88;51.37
35676;BME280;21790;42.668;23.298;2022-09-11T04:17:44;94574.31;;;23.95;51.10
35676;BME280;21790;42.668;23.298;2022-09-11T04:20:10;94578.13;;;23.76;51.44
35676;BME280;21790;42.668;23.298;2022-09-11T04:22:36;94580.44;;;23.86;51.17
35676;BME280;21790;42.668;23.298;2022-09-11T04:25:02;94577.63;;;23.86;51.56
35676;BME280;21790;42.668;23.298;2022-09-11T04:27:28;94576.09;;;23.85;51.40
35676;BME280;21790;42.668;23.298;2022-09-11T04:29:53;94582.31;;;23.83;51.13
35676;BME280;21790;42.668;23.298;2022-09-11T04:32:19;94577.28;;;23.68;51.81
35676;BME280;21790;42.668;23.298;2022-09-11T04:34:44;94574.19;;;23.80;51.25
35676;BME280;21790;42.668;23.298;2022-09-11T04:37:10;94574.31;;;23.95;50.91
35676;BME280;21790;42.668;23.298;2022-09-11T04:39:35;94577.13;;;23.95;50.98
35676;BME280;21790;42.668;23.298;2022-09-11T04:42:02;94574.22;;;24.08;50.73
35676;BME280;21790;42.668;23.298;2022-09-11T04:44:28;94569.13;;;24.06;50.76
35676;BME280;21790;42.668;23.298;2022-09-11T04:46:54;94581.66;;;24.18;50.54
35676;BME280;21790;42.668;23.298;2022-09-11T04:49:21;94581.44;;;24.16;50.62
35676;BME280;21790;42.668;23.298;2022-09-11T04:51:47;94578.78;;;24.39;49.70
35676;BME280;21790;42.668;23.298;2022-09-11T04:54:14;94581.56;;;24.60;49.46
35676;BME280;21790;42.668;23.298;2022-09-11T04:56:40;94591.19;;;24.72;48.45
35676;BME280;21790;42.668;23.298;2022-09-11T04:59:10;94588.72;;;24.97;48.46
35676;BME280;21790;42.668;23.298;2022-09-11T05:01:44;94585.69;;;24.95;48.67
35676;BME280;21790;42.668;23.298;2022-09-11T05:04:14;94582.34;;;25.12;48.12
35676;BME280;21790;42.668;23.298;2022-09-11T05:06:41;94583.88;;;25.13;48.21
35676;BME280;21790;42.668;23.298;2022-09-11T05:09:08;94585.00;;;25.17;47.81
35676;BME280;21790;42.668;23.298;2022-09-11T05:11:35;94590.91;;;25.34;47.73
35676;BME280;21790;42.668;23.298;2022-09-11T05:14:01;94590.19;;;25.41;47.65
35676;BME280;21790;42.668;23.298;2022-09-11T05:16:28;94586.66;;;25.64;47.66
35676;BME280;21790;42.668;23.298;2022-09-11T05:18:55;94587.97;;;25.63;47.10
35676;BME280;21790;42.668;23.298;2022-09-11T05:21:22;94580.81;;;25.62;47.45
35676;BME280;21790;42.668;23.298;2022-09-11T05:23:53;94584.22;;;25.83;47.51
35676;BME280;21790;42.668;23.298;2022-09-11T05:26:21;94581.75;;;25.87;47.31
35676;BME280;21790;42.668;23.298;2022-09-11T05:28:52;94577.03;;;26.05;46.89
35676;BME280;21790;42.668;23.298;2022-09-11T05:31:18;94579.88;;;26.12;46.91
35676;BME280;21790;42.668;23.298;2022-09-11T05:33:44;94580.66;;;26.28;46.19
35676;BME280;21790;42.668;23.298;2022-09-11T05:36:11;94581.38;;;26.44;45.77
35676;BME280;21790;42.668;23.298;2022-09-11T05:38:37;94578.91;;;26.48;45.72
35676;BME280;21790;42.668;23.298;2022-09-11T05:41:07;94578.50;;;26.59;45.60
35676;BME280;21790;42.668;23.298;2022-09-11T05:43:34;94569.94;;;26.74;45.33
35676;BME280;21790;42.668;23.298;2022-09-11T05:45:59;94573.31;;;26.80;44.99
35676;BME280;21790;42.668;23.298;2022-09-11T05:48:29;94566.06;;;27.10;44.68
35676;BME280;21790;42.668;23.298;2022-09-11T05:51:05;94568.34;;;27.11;44.86
35676;BME280;21790;42.668;23.298;2022-09-11T05:53:34;94574.94;;;27.14;44.77
35676;BME280;21790;42.668;23.298;2022-09-11T05:58:33;94574.38;;;27.47;44.14
35676;BME280;21790;42.668;23.298;2022-09-11T06:01:09;94570.69;;;27.62;43.95
35676;BME280;21790;42.668;23.298;2022-09-11T06:03:36;94573.38;;;27.60;43.66
35676;BME280;21790;42.668;23.298;2022-09-11T06:06:05;94580.16;;;27.65;43.99
35676;BME280;21790;42.668;23.298;2022-09-11T06:08:31;94571.81;;;27.67;43.98
35676;BME280;21790;42.668;23.298;2022-09-11T06:10:59;94580.09;;;27.72;43.86
35676;BME280;21790;42.668;23.298;2022-09-11T06:13:30;94580.72;;;27.88;43.69
35676;BME280;21790;42.668;23.298;2022-09-11T06:15:56;94586.41;;;27.88;43.50
35676;BME280;21790;42.668;23.298;2022-09-11T06:18:22;94591.38;;;27.87;43.82
35676;BME280;21790;42.668;23.298;2022-09-11T06:20:58;94588.94;;;28.09;43.37
35676;BME280;21790;42.668;23.298;2022-09-11T06:23:24;94599.91;;;28.05;43.20
35676;BME280;21790;42.668;23.298;2022-09-11T06:25:50;94588.13;;;28.16;43.00
35676;BME280;21790;42.668;23.298;2022-09-11T06:28:17;94595.50;;;28.19;43.09
35676;BME280;21790;42.668;23.298;2022-09-11T06:30:43;94599.66;;;28.18;43.14
35676;BME280;21790;42.668;23.298;2022-09-11T06:33:08;94608.88;;;28.26;43.25
35676;BME280;21790;42.668;23.298;2022-09-11T06:35:34;94598.00;;;28.32;42.94
35676;BME280;21790;42.668;23.298;2022-09-11T06:38:00;94597.91;;;28.47;42.82
35676;BME280;21790;42.668;23.298;2022-09-11T06:40:26;94600.81;;;28.57;42.59
35676;BME280;21790;42.668;23.298;2022-09-11T06:42:52;94611.88;;;28.53;42.33
35676;BME280;21790;42.668;23.298;2022-09-11T06:45:18;94616.00;;;28.77;42.14
35676;BME280;21790;42.668;23.298;2022-09-11T06:47:44;94613.09;;;28.84;42.07
35676;BME280;21790;42.668;23.298;2022-09-11T06:50:09;94610.13;;;28.92;41.95
35676;BME280;21790;42.668;23.298;2022-09-11T06:52:36;94611.66;;;28.93;41.97
35676;BME280;21790;42.668;23.298;2022-09-11T06:55:02;94603.69;;;29.08;41.69
35676;BME280;21790;42.668;23.298;2022-09-11T06:57:28;94603.13;;;29.10;41.36
35676;BME280;21790;42.668;23.298;2022-09-11T06:59:54;94602.84;;;29.16;41.47
35676;BME280;21790;42.668;23.298;2022-09-11T07:02:22;94601.59;;;29.26;41.50
35676;BME280;21790;42.668;23.298;2022-09-11T07:04:48;94607.38;;;29.36;41.27
35676;BME280;21790;42.668;23.298;2022-09-11T07:07:13;94606.78;;;29.20;40.63
35676;BME280;21790;42.668;23.298;2022-09-11T07:09:39;94604.69;;;29.38;40.44
35676;BME280;21790;42.668;23.298;2022-09-11T07:12:04;94607.59;;;29.47;40.25
35676;BME280;21790;42.668;23.298;2022-09-11T07:14:31;94608.91;;;29.64;39.83
35676;BME280;21790;42.668;23.298;2022-09-11T07:16:57;94602.13;;;29.86;39.80
35676;BME280;21790;42.668;23.298;2022-09-11T07:19:22;94608.56;;;29.86;39.24
35676;BME280;21790;42.668;23.298;2022-09-11T07:21:50;94602.94;;;29.96;38.79
35676;BME280;21790;42.668;23.298;2022-09-11T07:24:16;94602.38;;;30.07;38.40
35676;BME280;21790;42.668;23.298;2022-09-11T07:26:42;94602.56;;;30.09;38.66
35676;BME280;21790;42.668;23.298;2022-09-11T07:29:07;94605.13;;;30.15;37.68
35676;BME280;21790;42.668;23.298;2022-09-11T07:31:33;94602.88;;;30.13;38.05
35676;BME280;21790;42.668;23.298;2022-09-11T07:33:59;94598.88;;;30.26;37.74
35676;BME280;21790;42.668;23.298;2022-09-11T07:36:29;94598.41;;;30.29;37.61
35676;BME280;21790;42.668;23.298;2022-09-11T07:38:56;94601.25;;;30.29;37.05
35676;BME280;21790;42.668;23.298;2022-09-11T07:41:23;94599.06;;;30.38;36.63
35676;BME280;21790;42.668;23.298;2022-09-11T07:43:57;94597.19;;;30.59;36.44
35676;BME280;21790;42.668;23.298;2022-09-11T07:46:27;94595.03;;;30.50;36.18
35676;BME280;21790;42.668;23.298;2022-09-11T07:48:55;94595.28;;;30.35;36.11
35676;BME280;21790;42.668;23.298;2022-09-11T07:51:21;94591.72;;;29.71;35.71
35676;BME280;21790;42.668;23.298;2022-09-11T07:53:51;94606.00;;;30.08;35.84
35676;BME280;21790;42.668;23.298;2022-09-11T07:56:21;94594.34;;;30.23;36.34
35676;BME280;21790;42.668;23.298;2022-09-11T07:58:51;94596.03;;;30.35;35.72
35676;BME280;21790;42.668;23.298;2022-09-11T08:01:19;94587.56;;;30.55;36.12
35676;BME280;21790;42.668;23.298;2022-09-11T08:03:45;94584.84;;;30.57;35.06
35676;BME280;21790;42.668;23.298;2022-09-11T08:06:16;94579.66;;;30.82;35.27
35676;BME280;21790;42.668;23.298;2022-09-11T08:08:42;94583.38;;;30.85;35.28
35676;BME280;21790;42.668;23.298;2022-09-11T08:11:10;94580.97;;;31.00;35.33
35676;BME280;21790;42.668;23.298;2022-09-11T08:13:37;94579.63;;;31.01;35.38
35676;BME280;21790;42.668;23.298;2022-09-11T08:16:03;94573.34;;;31.12;34.20
35676;BME280;21790;42.668;23.298;2022-09-11T08:18:29;94572.75;;;31.24;34.71
35676;BME280;21790;42.668;23.298;2022-09-11T08:21:06;94563.84;;;31.39;33.97
35676;BME280;21790;42.668;23.298;2022-09-11T08:23:37;94568.66;;;31.46;34.42
35676;BME280;21790;42.668;23.298;2022-09-11T08:26:16;94562.78;;;31.63;34.15
35676;BME280;21790;42.668;23.298;2022-09-11T08:28:46;94563.97;;;31.60;34.76
35676;BME280;21790;42.668;23.298;2022-09-11T08:31:15;94559.47;;;31.57;33.95
35676;BME280;21790;42.668;23.298;2022-09-11T08:33:41;94566.53;;;31.66;34.64
35676;BME280;21790;42.668;23.298;2022-09-11T08:36:10;94562.75;;;31.73;33.86
35676;BME280;21790;42.668;23.298;2022-09-11T08:38:39;94570.84;;;31.76;34.69
35676;BME280;21790;42.668;23.298;2022-09-11T08:41:36;94561.22;;;31.81;34.04
35676;BME280;21790;42.668;23.298;2022-09-11T08:46:36;94563.19;;;32.10;33.68
35676;BME280;21790;42.668;23.298;2022-09-11T08:51:46;94559.69;;;31.90;33.87
35676;BME280;21790;42.668;23.298;2022-09-11T08:54:29;94546.94;;;32.22;33.61
35676;BME280;21790;42.668;23.298;2022-09-11T08:57:18;94555.44;;;32.31;32.92
35676;BME280;21790;42.668;23.298;2022-09-11T09:05:49;94542.97;;;32.27;32.88
35676;BME280;21790;42.668;23.298;2022-09-11T09:17:33;94530.19;;;32.49;32.08
35676;BME280;21790;42.668;23.298;2022-09-11T09:20:34;94527.66;;;32.22;32.97
35676;BME280;21790;42.668;23.298;2022-09-11T09:25:41;94520.53;;;32.54;31.84
35676;BME280;21790;42.668;23.298;2022-09-11T09:28:20;94524.34;;;32.68;31.53
35676;BME280;21790;42.668;23.298;2022-09-11T09:30:56;94518.63;;;32.90;31.11
35676;BME280;21790;42.668;23.298;2022-09-11T09:33:32;94526.66;;;33.03;30.62
35676;BME280;21790;42.668;23.298;2022-09-11T09:36:26;94516.94;;;33.08;30.64
35676;BME280;21790;42.668;23.298;2022-09-11T09:38:54;94512.88;;;33.11;29.86
35676;BME280;21790;42.668;23.298;2022-09-11T09:46:48;94511.63;;;33.14;30.32
35676;BME280;21790;42.668;23.298;2022-09-11T09:49:31;94505.75;;;33.12;29.38
35676;BME280;21790;42.668;23.298;2022-09-11T09:51:58;94501.78;;;33.38;29.54
35676;BME280;21790;42.668;23.298;2022-09-11T09:54:28;94509.94;;;33.20;29.04
35676;BME280;21790;42.668;23.298;2022-09-11T09:57:01;94503.94;;;33.16;28.83
35676;BME280;21790;42.668;23.298;2022-09-11T09:59:46;94499.31;;;33.56;28.74
35676;BME280;21790;42.668;23.298;2022-09-11T10:05:15;94497.50;;;33.95;27.15
35676;BME280;21790;42.668;23.298;2022-09-11T10:07:52;94493.56;;;33.56;27.82
35676;BME280;21790;42.668;23.298;2022-09-11T10:10:29;94484.84;;;33.42;27.34
35676;BME280;21790;42.668;23.298;2022-09-11T10:13:01;94482.84;;;33.56;28.15
35676;BME280;21790;42.668;23.298;2022-09-11T10:15:28;94486.25;;;33.65;28.39
35676;BME280;21790;42.668;23.298;2022-09-11T10:18:46;94486.41;;;33.78;28.84
35676;BME280;21790;42.668;23.298;2022-09-11T10:26:44;94493.88;;;33.95;28.08
35676;BME280;21790;42.668;23.298;2022-09-11T10:29:13;94482.66;;;33.76;28.20
35676;BME280;21790;42.668;23.298;2022-09-11T10:31:47;94483.41;;;33.88;28.25
35676;BME280;21790;42.668;23.298;2022-09-11T10:34:15;94488.16;;;33.95;27.69
35676;BME280;21790;42.668;23.298;2022-09-11T10:36:58;94485.03;;;34.02;28.15
35676;BME280;21790;42.668;23.298;2022-09-11T10:39:25;94488.91;;;34.07;28.66
35676;BME280;21790;42.668;23.298;2022-09-11T10:41:52;94480.53;;;34.11;28.07
35676;BME280;21790;42.668;23.298;2022-09-11T10:44:21;94468.97;;;34.09;27.80
35676;BME280;21790;42.668;23.298;2022-09-11T10:47:12;94471.44;;;34.03;27.69
35676;BME280;21790;42.668;23.298;2022-09-11T10:49:39;94465.09;;;33.93;28.35
35676;BME280;21790;42.668;23.298;2022-09-11T11:00:21;94464.41;;;33.36;29.32
35676;BME280;21790;42.668;23.298;2022-09-11T11:02:54;94461.69;;;33.38;29.03
35676;BME280;21790;42.668;23.298;2022-09-11T11:14:44;94450.09;;;32.70;29.88
35676;BME280;21790;42.668;23.298;2022-09-11T11:25:24;94433.13;;;32.96;29.57
35676;BME280;21790;42.668;23.298;2022-09-11T11:33:37;94428.72;;;33.16;28.88
35676;BME280;21790;42.668;23.298;2022-09-11T11:36:59;94418.38;;;33.11;28.70
35676;BME280;21790;42.668;23.298;2022-09-11T11:41:45;94411.59;;;33.28;28.23
35676;BME280;21790;42.668;23.298;2022-09-11T11:44:17;94408.47;;;33.35;30.30
35676;BME280;21790;42.668;23.298;2022-09-11T11:46:49;94408.47;;;33.24;29.77
35676;BME280;21790;42.668;23.298;2022-09-11T11:49:26;94404.59;;;33.19;28.85
35676;BME280;21790;42.668;23.298;2022-09-11T11:52:04;94417.50;;;33.08;29.19
35676;BME280;21790;42.668;23.298;2022-09-11T11:54:51;94412.72;;;32.90;29.81
35676;BME280;21790;42.668;23.298;2022-09-11T11:57:20;94416.41;;;32.80;30.24
35676;BME280;21790;42.668;23.298;2022-09-11T12:00:02;94408.75;;;32.95;30.96
35676;BME280;21790;42.668;23.298;2022-09-11T12:02:39;94412.69;;;32.78;30.59
35676;BME280;21790;42.668;23.298;2022-09-11T12:05:15;94401.84;;;32.76;29.96
35676;BME280;21790;42.668;23.298;2022-09-11T12:07:42;94395.06;;;32.60;29.86
35676;BME280;21790;42.668;23.298;2022-09-11T12:10:52;94394.13;;;32.79;29.59
35676;BME280;21790;42.668;23.298;2022-09-11T12:13:17;94395.75;;;32.70;29.75
35676;BME280;21790;42.668;23.298;2022-09-11T12:18:26;94386.91;;;32.45;29.31
35676;BME280;21790;42.668;23.298;2022-09-11T12:26:23;94380.91;;;32.41;30.07
35676;BME280;21790;42.668;23.298;2022-09-11T12:34:53;94369.38;;;32.18;30.33
35676;BME280;21790;42.668;23.298;2022-09-11T12:37:34;94364.19;;;32.26;30.46
35676;BME280;21790;42.668;23.298;2022-09-11T12:45:41;94356.97;;;32.25;29.84
35676;BME280;21790;42.668;23.298;2022-09-11T12:48:13;94358.31;;;32.45;30.38
35676;BME280;21790;42.668;23.298;2022-09-11T12:50:39;94353.94;;;32.65;29.84
35676;BME280;21790;42.668;23.298;2022-09-11T12:53:17;94346.03;;;32.54;30.50
35676;BME280;21790;42.668;23.298;2022-09-11T13:00:44;94334.94;;;32.49;29.86
35676;BME280;21790;42.668;23.298;2022-09-11T13:03:23;94336.66;;;32.42;29.05
35676;BME280;21790;42.668;23.298;2022-09-11T13:06:04;94338.41;;;32.47;29.08
35676;BME280;21790;42.668;23.298;2022-09-11T13:08:55;94325.47;;;32.46;30.31
35676;BME280;21790;42.668;23.298;2022-09-11T13:11:45;94324.75;;;32.24;30.16
35676;BME280;21790;42.668;23.298;2022-09-11T13:16:55;94316.44;;;32.17;29.08
35676;BME280;21790;42.668;23.298;2022-09-11T13:19:21;94318.88;;;31.89;29.50
35676;BME280;21790;42.668;23.298;2022-09-11T13:21:48;94310.50;;;31.82;29.91
35676;BME280;21790;42.668;23.298;2022-09-11T13:27:04;94295.59;;;31.83;29.77
35676;BME280;21790;42.668;23.298;2022-09-11T13:29:33;94297.66;;;31.71;30.14
35676;BME280;21790;42.668;23.298;2022-09-11T13:32:05;94300.75;;;31.75;30.45
35676;BME280;21790;42.668;23.298;2022-09-11T13:34:35;94291.53;;;31.65;29.96
35676;BME280;21790;42.668;23.298;2022-09-11T13:37:08;94290.84;;;31.76;29.92
35676;BME280;21790;42.668;23.298;2022-09-11T13:39:39;94300.09;;;31.65;29.88
35676;BME280;21790;42.668;23.298;2022-09-11T13:42:11;94299.25;;;31.53;30.45
35676;BME280;21790;42.668;23.298;2022-09-11T13:49:41;94291.22;;;31.40;30.66
35676;BME280;21790;42.668;23.298;2022-09-11T13:52:10;94278.22;;;31.48;30.65
35676;BME280;21790;42.668;23.298;2022-09-11T13:54:44;94288.06;;;31.67;30.92
35676;BME280;21790;42.668;23.298;2022-09-11T13:57:16;94283.75;;;31.56;30.86
35676;BME280;21790;42.668;23.298;2022-09-11T14:05:21;94283.59;;;31.64;29.77
35676;BME280;21790;42.668;23.298;2022-09-11T14:08:01;94277.88;;;31.64;29.80
35676;BME280;21790;42.668;23.298;2022-09-11T14:10:36;94276.75;;;31.47;29.70
35676;BME280;21790;42.668;23.298;2022-09-11T14:18:32;94271.50;;;31.44;30.26
35676;BME280;21790;42.668;23.298;2022-09-11T14:21:02;94254.38;;;31.44;29.36
35676;BME280;21790;42.668;23.298;2022-09-11T14:23:29;94254.50;;;31.25;30.12
35676;BME280;21790;42.668;23.298;2022-09-11T14:26:03;94263.47;;;31.31;29.67
35676;BME280;21790;42.668;23.298;2022-09-11T14:31:36;94257.63;;;31.29;29.33
35676;BME280;21790;42.668;23.298;2022-09-11T14:36:52;94254.91;;;31.09;29.80
35676;BME280;21790;42.668;23.298;2022-09-11T14:39:44;94257.47;;;31.27;29.61
35676;BME280;21790;42.668;23.298;2022-09-11T14:42:22;94258.13;;;31.15;29.46
35676;BME280;21790;42.668;23.298;2022-09-11T14:44:49;94249.41;;;30.92;29.61
35676;BME280;21790;42.668;23.298;2022-09-11T14:47:19;94254.16;;;30.99;29.81
35676;BME280;21790;42.668;23.298;2022-09-11T14:49:46;94259.91;;;30.90;29.99
35676;BME280;21790;42.668;23.298;2022-09-11T14:52:20;94248.16;;;30.95;30.10
35676;BME280;21790;42.668;23.298;2022-09-11T14:54:47;94241.91;;;30.87;29.62
35676;BME280;21790;42.668;23.298;2022-09-11T14:57:33;94247.84;;;31.01;29.26
35676;BME280;21790;42.668;23.298;2022-09-11T14:59:59;94246.16;;;30.77;28.91
35676;BME280;21790;42.668;23.298;2022-09-11T15:02:27;94251.41;;;30.80;28.99
35676;BME280;21790;42.668;23.298;2022-09-11T15:04:55;94250.38;;;30.75;29.42
35676;BME280;21790;42.668;23.298;2022-09-11T15:07:21;94261.47;;;30.81;28.49
35676;BME280;21790;42.668;23.298;2022-09-11T15:09:48;94252.53;;;30.65;29.02
35676;BME280;21790;42.668;23.298;2022-09-11T15:12:14;94243.91;;;30.75;28.34
35676;BME280;21790;42.668;23.298;2022-09-11T15:14:40;94244.56;;;30.64;28.49
35676;BME280;21790;42.668;23.298;2022-09-11T15:17:09;94238.97;;;30.66;28.40
35676;BME280;21790;42.668;23.298;2022-09-11T15:19:35;94241.28;;;30.58;28.88
35676;BME280;21790;42.668;23.298;2022-09-11T15:22:02;94239.50;;;30.33;29.45
35676;BME280;21790;42.668;23.298;2022-09-11T15:24:27;94247.47;;;30.35;29.42
35676;BME280;21790;42.668;23.298;2022-09-11T15:26:54;94246.97;;;30.58;29.13
35676;BME280;21790;42.668;23.298;2022-09-11T15:29:20;94244.91;;;30.49;28.73
35676;BME280;21790;42.668;23.298;2022-09-11T15:31:47;94234.72;;;30.36;29.59
35676;BME280;21790;42.668;23.298;2022-09-11T15:34:14;94239.06;;;30.37;29.18
35676;BME280;21790;42.668;23.298;2022-09-11T15:36:41;94248.22;;;30.35;29.69
35676;BME280;21790;42.668;23.298;2022-09-11T15:39:10;94241.97;;;30.27;29.79
35676;BME280;21790;42.668;23.298;2022-09-11T15:41:36;94238.03;;;30.32;29.63
35676;BME280;21790;42.668;23.298;2022-09-11T15:44:08;94235.16;;;30.42;29.53
35676;BME280;21790;42.668;23.298;2022-09-11T15:46:34;94238.19;;;30.25;30.05
35676;BME280;21790;42.668;23.298;2022-09-11T15:49:00;94239.56;;;30.14;29.71